Glens Falls, New York
Current Conditions -  °F | °C
As of 7:53 AM on Friday 19 Dec 2014 (Local Time) from KGFL Reporting Station
Overcast Overcast  
Wind Chill: 23°   Ceiling: 5500
Heat Index: 29°   Visibility: 10mi
Dew Point: 20°   Wind: 6mph
Humidity: 69%   Direction: 350°N
Pressure: 30.01"   Gusts: NA
Location:  43.31°N, 73.64°W
Report Text: KGFL 191253Z AUTO 35005KT 10SM OVC055 M02/M07 A3001 RMK AO2 SLP171 T10171067
Loading
Personal Weather Stations






























Interactive Weather Map New forecast layout! Learn more

10-Day Weather Forecast

Advertisements
Track Severe Weather on mobile